Time;durP1;ratioP1;P1;durP2;ratioP2;P2;SDS_P1;SDS_P2;PMS_P1;PMS_P2;Temp;Humidity;BMP_temperature;BMP_pressure;BME280_temperature;BME280_humidity;BME280_pressure;Samples;Min_cycle;Max_cycle;Signal;HPM_P1;HPM_P2
2021/11/06 00:02:44;;;;;;;17.27;12.73;;;;;;;9.37;76.08;101422.38;10251431;28;20065;-59
2021/11/06 00:07:46;;;;;;;15.30;13.07;;;;;;;9.29;75.77;101426.41;10232513;28;20519;-59
2021/11/06 00:12:48;;;;;;;14.02;12.63;;;;;;;9.11;76.59;101421.22;10251368;28;20050;-60
2021/11/06 00:17:49;;;;;;;14.00;12.57;;;;;;;9.18;76.45;101433.19;10253634;28;20048;-59
2021/11/06 00:22:51;;;;;;;14.65;13.20;;;;;;;9.13;76.48;101421.97;10256619;28;20058;-59
2021/11/06 00:27:52;;;;;;;16.65;13.82;;;;;;;9.09;76.96;101436.34;10256200;28;20050;-60
2021/11/06 00:32:55;;;;;;;16.35;14.25;;;;;;;9.08;76.73;101429.31;10249594;28;20055;-58
2021/11/06 00:37:57;;;;;;;16.45;13.60;;;;;;;8.96;77.58;101422.91;10252956;28;20051;-58
2021/11/06 00:42:58;;;;;;;18.00;13.48;;;;;;;8.92;77.79;101424.00;10253296;28;20130;-59
2021/11/06 00:48:00;;;;;;;17.65;14.70;;;;;;;9.11;77.07;101428.28;10249136;28;20102;-59
2021/11/06 00:53:02;;;;;;;18.85;13.93;;;;;;;9.10;77.09;101430.09;10259268;28;20563;-59
2021/11/06 00:58:03;;;;;;;18.42;13.90;;;;;;;9.07;77.35;101416.13;10254471;28;20051;-58
2021/11/06 01:03:05;;;;;;;18.10;14.23;;;;;;;9.02;77.13;101417.25;10249246;28;20051;-59
2021/11/06 01:08:07;;;;;;;16.42;14.73;;;;;;;8.99;77.63;101417.44;10251261;28;20058;-59
2021/11/06 01:13:08;;;;;;;16.45;13.82;;;;;;;9.10;77.57;101416.81;10246731;28;20082;-60
2021/11/06 01:18:10;;;;;;;17.42;14.95;;;;;;;8.98;78.11;101420.16;10233235;28;20051;-60
2021/11/06 01:23:12;;;;;;;15.95;14.35;;;;;;;9.00;78.14;101416.47;10249406;28;20093;-59
2021/11/06 01:28:13;;;;;;;17.05;15.23;;;;;;;8.87;78.14;101422.53;10251991;28;20058;-59
2021/11/06 01:33:15;;;;;;;16.95;14.82;;;;;;;8.85;78.47;101430.59;10247317;28;20078;-60
2021/11/06 01:38:16;;;;;;;16.40;14.13;;;;;;;8.93;78.37;101427.50;10226175;28;20055;-59
2021/11/06 01:43:18;;;;;;;15.85;13.32;;;;;;;8.93;79.03;101432.81;10249878;28;20137;-59
2021/11/06 01:48:19;;;;;;;16.42;13.93;;;;;;;9.01;79.44;101433.28;10244564;28;20055;-59
2021/11/06 01:53:21;;;;;;;16.98;13.48;;;;;;;9.08;78.48;101442.59;10247340;28;20156;-59
2021/11/06 01:58:24;;;;;;;15.43;13.65;;;;;;;9.08;78.52;101426.66;10244555;28;20709;-59
2021/11/06 02:03:26;;;;;;;14.95;12.80;;;;;;;9.02;78.63;101434.97;10248369;28;20101;-59
2021/11/06 02:08:27;;;;;;;16.13;14.05;;;;;;;8.96;79.38;101419.38;10247078;28;20467;-59
2021/11/06 02:13:29;;;;;;;18.02;15.07;;;;;;;9.08;79.49;101429.31;10246892;28;20206;-59
2021/11/06 02:18:30;;;;;;;15.50;13.55;;;;;;;9.15;78.51;101420.06;10250319;28;20051;-58
2021/11/06 02:23:34;;;;;;;15.45;13.85;;;;;;;9.12;79.49;101406.97;10248610;28;20548;-59
2021/11/06 02:28:35;;;;;;;15.48;12.73;;;;;;;9.12;79.07;101414.94;10247403;28;20059;-58
2021/11/06 02:33:37;;;;;;;14.27;12.77;;;;;;;9.13;79.30;101414.00;10237900;28;20051;-58
2021/11/06 02:38:38;;;;;;;16.05;12.30;;;;;;;9.13;78.97;101414.00;10230667;28;20055;-58
2021/11/06 02:43:40;;;;;;;17.55;13.48;;;;;;;9.15;78.84;101412.09;10245814;28;20468;-57
2021/11/06 02:48:42;;;;;;;14.50;12.32;;;;;;;9.17;78.91;101415.53;10246346;28;20122;-62
2021/11/06 02:53:43;;;;;;;14.90;13.40;;;;;;;9.23;78.87;101410.81;10243693;28;20086;-58
2021/11/06 02:58:45;;;;;;;13.50;12.05;;;;;;;9.20;78.91;101417.16;10245138;28;20504;-58
2021/11/06 03:03:47;;;;;;;16.30;12.63;;;;;;;9.10;79.35;101411.50;10240172;28;20091;-58
2021/11/06 03:08:48;;;;;;;15.13;12.95;;;;;;;8.97;79.43;101406.00;10243705;28;20134;-58
2021/11/06 03:13:51;;;;;;;14.07;12.32;;;;;;;8.87;79.58;101410.13;10240565;28;20079;-59
2021/11/06 03:18:52;;;;;;;15.70;14.07;;;;;;;8.69;80.90;101419.09;10246841;28;20237;-59
2021/11/06 03:23:54;;;;;;;16.35;12.95;;;;;;;8.70;81.18;101426.97;10243388;28;20504;-59
2021/11/06 03:28:56;;;;;;;16.15;12.73;;;;;;;8.75;81.47;101424.94;10244228;28;20105;-59
2021/11/06 03:33:57;;;;;;;14.98;13.35;;;;;;;8.70;80.97;101426.97;10237990;28;20106;-59
2021/11/06 03:38:58;;;;;;;14.40;12.88;;;;;;;8.67;81.47;101429.78;10245615;28;20125;-59
2021/11/06 03:44:00;;;;;;;16.27;13.07;;;;;;;8.87;81.35;101451.75;10235328;28;20059;-60
2021/11/06 03:49:03;;;;;;;13.18;11.77;;;;;;;8.94;80.64;101445.19;10243379;28;20074;-60
2021/11/06 03:54:04;;;;;;;15.02;12.07;;;;;;;8.99;80.40;101454.63;10244441;28;20051;-60
2021/11/06 03:59:06;;;;;;;15.07;12.48;;;;;;;8.97;79.89;101464.44;10249974;28;20055;-59
2021/11/06 04:04:08;;;;;;;13.30;11.88;;;;;;;8.85;79.86;101458.00;10248907;28;20489;-60
2021/11/06 04:09:10;;;;;;;15.77;12.95;;;;;;;8.71;79.85;101455.25;10244881;28;20047;-60
2021/11/06 04:14:11;;;;;;;14.68;12.80;;;;;;;8.68;80.63;101476.66;10231214;28;20109;-59
2021/11/06 04:19:13;;;;;;;16.30;13.60;;;;;;;8.69;80.32;101467.72;10245875;28;20051;-58
2021/11/06 04:24:15;;;;;;;17.33;14.27;;;;;;;8.61;79.48;101462.81;10246848;28;20063;-58
2021/11/06 04:29:16;;;;;;;14.60;12.20;;;;;;;8.52;80.41;101459.81;10249572;28;20110;-59
2021/11/06 04:34:18;;;;;;;17.77;14.18;;;;;;;8.42;80.65;101460.28;10247198;28;20050;-59
2021/11/06 04:39:19;;;;;;;17.80;14.57;;;;;;;8.27;80.40;101450.44;10246006;28;20078;-59
2021/11/06 04:44:21;;;;;;;16.67;14.13;;;;;;;8.21;80.21;101456.06;10246379;28;20082;-58
2021/11/06 04:49:22;;;;;;;15.45;13.57;;;;;;;8.18;80.33;101458.88;10228526;28;20058;-59
2021/11/06 04:54:24;;;;;;;17.05;13.68;;;;;;;8.22;80.53;101457.78;10244867;28;20067;-60
2021/11/06 04:59:25;;;;;;;17.58;14.15;;;;;;;8.16;79.98;101460.75;10247326;28;20641;-60
2021/11/06 05:04:30;;;;;;;14.55;13.05;;;;;;;8.23;80.14;101456.84;10242847;28;20582;-59
2021/11/06 05:09:32;;;;;;;16.95;14.93;;;;;;;8.18;80.43;101465.06;10246733;28;20092;-60
2021/11/06 05:14:34;;;;;;;15.77;13.75;;;;;;;8.10;81.63;101469.88;10241173;28;20146;-60
2021/11/06 05:19:36;;;;;;;16.25;12.73;;;;;;;8.13;81.17;101470.56;10244091;28;20121;-63
2021/11/06 05:24:38;;;;;;;17.17;13.50;;;;;;;8.10;80.74;101481.31;10245347;28;20167;-59
2021/11/06 05:29:40;;;;;;;16.58;12.52;;;;;;;8.09;80.44;101484.06;10242887;28;20070;-60
2021/11/06 05:34:41;;;;;;;16.75;12.70;;;;;;;8.10;79.50;101481.31;10244741;28;20110;-60
2021/11/06 05:39:42;;;;;;;15.55;13.18;;;;;;;8.05;79.94;101477.22;10246255;28;20108;-60
2021/11/06 05:44:44;;;;;;;15.93;12.57;;;;;;;8.07;79.93;101477.97;10240739;28;20054;-60
2021/11/06 05:49:46;;;;;;;14.05;12.57;;;;;;;8.11;79.99;101490.16;10238132;28;20651;-60
2021/11/06 05:55:09;;;;;;;15.20;13.60;;;;;;;8.16;79.75;101492.56;10243254;28;20520;-62
2021/11/06 06:00:17;;;;;;;17.10;14.00;;;;;;;8.17;79.41;101496.94;10226539;28;20059;-61
2021/11/06 06:05:19;;;;;;;18.80;14.95;;;;;;;8.20;79.46;101507.41;10240405;28;20144;-60
2021/11/06 06:10:20;;;;;;;19.58;16.20;;;;;;;8.21;80.14;101509.97;10236733;28;20050;-59
2021/11/06 06:15:22;;;;;;;20.65;16.05;;;;;;;8.27;80.09;101509.66;10242488;28;20095;-60
2021/11/06 06:20:24;;;;;;;20.90;16.25;;;;;;;8.23;81.94;101518.72;10242932;28;20078;-60
2021/11/06 06:25:25;;;;;;;23.13;16.92;;;;;;;8.11;81.42;101520.19;10242900;28;20088;-61
2021/11/06 06:30:27;;;;;;;25.50;18.48;;;;;;;8.13;82.14;101526.25;10244941;28;20139;-60
2021/11/06 06:35:29;;;;;;;24.10;18.80;;;;;;;8.14;82.22;101529.78;10226815;28;20050;-60
2021/11/06 06:40:31;;;;;;;26.02;18.80;;;;;;;8.13;82.20;101533.38;10230373;28;20105;-62
2021/11/06 06:45:33;;;;;;;23.40;18.10;;;;;;;8.28;82.12;101537.91;10228235;28;20493;-62
2021/11/06 06:50:34;;;;;;;25.42;18.52;;;;;;;8.32;82.86;101533.31;10226636;28;20121;-62
2021/11/06 06:55:36;;;;;;;25.63;19.10;;;;;;;8.34;83.09;101531.44;10228473;28;20055;-61
2021/11/06 07:00:37;;;;;;;30.30;19.63;;;;;;;8.23;83.52;101539.94;10228792;28;20054;-62
2021/11/06 07:05:39;;;;;;;29.98;20.42;;;;;;;8.26;83.31;101546.88;10228741;28;20046;-62
2021/11/06 07:10:41;;;;;;;24.23;19.25;;;;;;;8.06;84.62;101546.09;10229075;28;20047;-61
2021/11/06 07:15:43;;;;;;;25.08;18.63;;;;;;;8.22;84.12;101563.88;10228093;28;20047;-61
2021/11/06 07:20:45;;;;;;;26.40;20.15;;;;;;;8.36;83.81;101566.72;10212363;28;20512;-61
2021/11/06 07:25:46;;;;;;;25.55;19.25;;;;;;;8.59;83.25;101572.69;10236095;28;20051;-61
2021/11/06 07:30:48;;;;;;;24.40;18.42;;;;;;;8.67;82.57;101573.97;10236021;28;20164;-61
2021/11/06 07:35:50;;;;;;;24.73;18.50;;;;;;;8.77;81.96;101577.03;10232292;28;20047;-59
2021/11/06 07:40:51;;;;;;;26.60;19.02;;;;;;;8.52;81.67;101579.25;10235226;28;20050;-61
2021/11/06 07:45:53;;;;;;;27.27;22.95;;;;;;;8.39;83.03;101566.56;10233997;28;20051;-61
2021/11/06 07:50:55;;;;;;;27.65;21.05;;;;;;;8.64;82.73;101573.28;10231794;28;20133;-60
2021/11/06 07:55:56;;;;;;;24.92;20.60;;;;;;;8.53;82.43;101572.97;10231846;28;20050;-55
2021/11/06 08:00:59;;;;;;;24.60;21.05;;;;;;;8.47;81.95;101569.69;10233134;28;20463;-61
2021/11/06 08:06:01;;;;;;;22.10;17.95;;;;;;;8.41;82.40;101577.09;10237778;28;20043;-59
2021/11/06 08:11:03;;;;;;;21.33;17.45;;;;;;;8.53;81.70;101588.91;10216284;28;20085;-60
2021/11/06 08:16:05;;;;;;;28.92;19.30;;;;;;;8.48;81.92;101587.34;10234909;28;20059;-60
2021/11/06 08:21:07;;;;;;;25.35;18.92;;;;;;;8.63;82.08;101579.53;10234783;28;20078;-59
2021/11/06 08:26:10;;;;;;;18.63;15.75;;;;;;;8.62;81.49;101588.44;10233563;28;20548;-61
2021/11/06 08:31:11;;;;;;;24.35;17.27;;;;;;;8.77;80.60;101587.66;10234026;28;20118;-59
2021/11/06 08:36:13;;;;;;;23.80;17.50;;;;;;;8.67;81.83;101587.25;10231080;28;20158;-60
2021/11/06 08:41:15;;;;;;;23.55;18.73;;;;;;;8.49;81.19;101588.19;10234088;28;20055;-60
2021/11/06 08:46:17;;;;;;;28.10;20.55;;;;;;;8.61;81.39;101578.75;10234662;28;20134;-60
2021/11/06 08:51:18;;;;;;;23.15;17.75;;;;;;;8.81;80.71;101581.25;10232305;28;20137;-60
2021/11/06 08:56:20;;;;;;;24.67;18.50;;;;;;;8.74;81.15;101597.59;10234911;28;20451;-60
2021/11/06 09:01:21;;;;;;;25.95;17.63;;;;;;;8.72;80.54;101592.34;10234387;28;20125;-60
2021/11/06 09:06:24;;;;;;;19.08;16.58;;;;;;;8.66;81.52;101592.66;10235716;28;20650;-60
2021/11/06 09:11:25;;;;;;;24.88;17.67;;;;;;;8.51;82.09;101590.78;10234506;28;20054;-59
2021/11/06 09:16:27;;;;;;;19.55;16.73;;;;;;;8.56;81.90;101588.78;10233557;28;20086;-60
2021/11/06 09:21:29;;;;;;;19.40;15.45;;;;;;;8.98;81.36;101590.16;10234439;28;20059;-60
2021/11/06 09:26:49;;;;;;;21.73;16.08;;;;;;;8.79;80.54;101599.03;10233183;28;22042;-60
2021/11/06 09:31:51;;;;;;;23.40;17.45;;;;;;;8.85;80.59;101597.88;10230014;28;20424;-60
2021/11/06 09:36:52;;;;;;;22.90;17.88;;;;;;;9.14;80.69;101596.38;10231600;28;20558;-60
2021/11/06 09:41:54;;;;;;;24.23;19.23;;;;;;;9.43;78.17;101585.97;10230794;28;20130;-60
2021/11/06 09:46:57;;;;;;;22.35;17.90;;;;;;;9.42;77.78;101600.19;10232712;28;20093;-59
2021/11/06 09:51:59;;;;;;;26.83;19.15;;;;;;;9.41;78.10;101603.78;10234236;28;20583;-59
2021/11/06 09:57:01;;;;;;;25.90;18.60;;;;;;;9.72;76.49;101607.41;10232086;28;20065;-58
2021/11/06 10:02:03;;;;;;;25.40;20.30;;;;;;;9.66;76.48;101602.44;10229723;28;20187;-59
2021/11/06 10:07:18;;;;;;;22.70;18.33;;;;;;;9.93;75.18;101607.19;10214529;28;20145;-60
2021/11/06 10:12:20;;;;;;;;;;;;;;;10.16;73.72;101606.72;10231863;28;20130;-58
2021/11/06 10:17:26;;;;;;;19.58;17.30;;;;;;;9.90;74.79;101590.44;10232119;28;20556;-58
2021/11/06 10:22:29;;;;;;;19.50;15.98;;;;;;;9.82;74.80;101592.69;10232932;28;20113;-58
2021/11/06 10:27:33;;;;;;;17.98;15.00;;;;;;;10.42;73.91;101585.78;10233305;28;20172;-58
2021/11/06 10:32:36;;;;;;;15.23;13.63;;;;;;;12.49;66.33;101575.47;10229896;28;20043;-58
2021/11/06 10:37:38;;;;;;;13.60;11.93;;;;;;;14.55;57.53;101562.53;10227135;28;20644;-58
2021/11/06 10:42:55;;;;;;;13.27;11.98;;;;;;;17.31;52.97;101548.00;10211190;28;20057;-60
2021/11/06 10:48:06;;;;;;;12.75;11.40;;;;;;;17.00;50.50;101540.94;10229260;28;20133;-60
2021/11/06 10:53:11;;;;;;;12.00;10.77;;;;;;;19.87;42.22;101530.44;10231637;28;20513;-60
2021/11/06 10:58:30;;;;;;;12.38;11.18;;;;;;;18.46;45.05;101540.38;10204737;28;22010;-60
2021/11/06 11:03:35;;;;;;;11.68;10.43;;;;;;;16.79;48.39;101536.41;10239151;28;20050;-60
2021/11/06 11:08:42;;;;;;;10.40;9.50;;;;;;;21.45;39.88;101513.28;10239797;28;20141;-61
2021/11/06 11:13:50;;;;;;;10.27;9.35;;;;;;;23.45;35.64;101498.38;10242634;28;20232;-60
2021/11/06 11:18:54;;;;;;;11.40;10.40;;;;;;;23.91;35.22;101503.00;10235660;28;20126;-62
2021/11/06 11:23:56;;;;;;;11.02;10.05;;;;;;;21.54;36.66;101503.31;10232128;28;20065;-61
2021/11/06 11:28:59;;;;;;;12.23;11.02;;;;;;;18.66;42.99;101496.19;10233240;28;20598;-61
2021/11/06 11:34:01;;;;;;;;;;;;;;;20.58;40.06;101483.56;10237200;28;20058;-61
2021/11/06 11:39:07;;;;;;;12.02;11.02;;;;;;;23.64;35.19;101469.88;10237476;28;19922;-61
2021/11/06 11:44:34;;;;;;;12.63;11.32;;;;;;;23.77;33.17;101468.44;10218849;28;20055;-63
2021/11/06 11:49:39;;;;;;;11.13;10.02;;;;;;;25.79;30.89;101460.19;10232123;28;20201;-63
2021/11/06 11:55:01;;;;;;;11.55;10.40;;;;;;;26.63;29.14;101451.25;10234667;28;20771;-61
2021/11/06 12:00:22;;;;;;;10.65;9.48;;;;;;;26.76;28.66;101450.50;10234780;28;20136;-61
2021/11/06 12:05:32;;;;;;;10.40;9.50;;;;;;;25.97;29.07;101451.56;10192106;28;20093;-61
2021/11/06 12:10:46;;;;;;;10.23;9.32;;;;;;;24.68;32.04;101442.13;10234218;28;20133;-61
2021/11/06 12:16:10;;;;;;;9.20;8.40;;;;;;;26.05;29.24;101432.38;10234044;28;20114;-62
2021/11/06 12:21:20;;;;;;;10.88;9.77;;;;;;;23.27;33.61;101433.44;10227085;28;20047;-60
2021/11/06 12:26:28;;;;;;;11.95;10.75;;;;;;;19.60;40.40;101434.94;10234538;28;20082;-61
2021/11/06 12:31:40;;;;;;;10.80;9.80;;;;;;;23.09;34.46;101421.97;10233607;28;20087;-60
2021/11/06 12:36:42;;;;;;;10.37;9.37;;;;;;;24.25;32.38;101422.00;10232906;28;21069;-61
2021/11/06 12:41:44;;;;;;;11.73;10.73;;;;;;;26.55;28.94;101404.16;10229065;28;20189;-61
2021/11/06 12:46:46;;;;;;;11.55;10.45;;;;;;;27.13;26.96;101381.94;10217481;28;20197;-62
2021/11/06 12:51:47;;;;;;;10.20;8.98;;;;;;;27.66;27.15;101392.16;10235036;28;20054;-61
2021/11/06 12:56:54;;;;;;;11.32;10.32;;;;;;;29.18;25.81;101381.03;10234040;28;20479;-60
2021/11/06 13:02:01;;;;;;;10.98;9.98;;;;;;;28.65;25.20;101389.53;10216823;28;21191;-61
2021/11/06 13:07:04;;;;;;;12.27;11.20;;;;;;;28.38;25.93;101381.38;10233303;28;20113;-62
2021/11/06 13:12:07;;;;;;;11.05;10.05;;;;;;;29.75;24.52;101369.28;10233272;28;20510;-61
2021/11/06 13:17:20;;;;;;;12.70;11.52;;;;;;;29.38;24.11;101370.00;10230570;28;20233;-61
2021/11/06 13:22:24;;;;;;;11.45;10.45;;;;;;;28.89;24.14;101371.53;10229843;28;20046;-61
2021/11/06 13:27:38;;;;;;;13.57;12.40;;;;;;;29.00;24.77;101356.28;10230311;28;20516;-62
2021/11/06 13:33:08;;;;;;;12.68;11.48;;;;;;;28.62;24.79;101348.88;10230804;28;20055;-63
2021/11/06 13:38:35;;;;;;;13.25;12.05;;;;;;;28.77;24.77;101335.75;10232788;28;20186;-60
2021/11/06 13:43:40;;;;;;;13.88;12.57;;;;;;;29.38;24.54;101303.31;10229733;28;20160;-60
2021/11/06 13:48:51;;;;;;;12.63;11.52;;;;;;;28.34;25.10;101314.41;10232334;28;20062;-61
2021/11/06 13:53:55;;;;;;;14.82;13.48;;;;;;;28.73;24.93;101301.63;10232597;28;20937;-61
2021/11/06 13:58:59;;;;;;;14.18;12.30;;;;;;;27.20;26.03;101291.75;10215538;28;20134;-61
2021/11/06 14:04:01;;;;;;;14.15;12.20;;;;;;;25.27;29.37;101287.78;10228632;28;20168;-61
2021/11/06 14:09:04;;;;;;;14.38;13.05;;;;;;;26.49;28.28;101284.84;10214150;28;20474;-61
2021/11/06 14:14:06;;;;;;;39.78;36.00;;;;;;;26.45;27.95;101273.47;10229097;28;20201;-61
2021/11/06 14:19:09;;;;;;;15.45;13.98;;;;;;;26.78;27.51;101279.09;10230249;28;20078;-61
2021/11/06 14:24:10;;;;;;;15.80;14.13;;;;;;;26.71;27.69;101259.13;10229745;28;20110;-61
2021/11/06 14:29:15;;;;;;;14.10;12.70;;;;;;;26.00;28.71;101263.00;10228014;28;20062;-61
2021/11/06 14:34:32;;;;;;;15.13;12.77;;;;;;;25.20;29.50;101267.78;10231864;28;20099;-62
2021/11/06 14:39:38;;;;;;;14.50;13.20;;;;;;;22.73;33.64;101251.50;10230554;28;20052;-61
2021/11/06 14:44:42;;;;;;;14.63;13.23;;;;;;;21.31;36.24;101245.81;10228809;28;20162;-63
2021/11/06 14:49:46;;;;;;;14.27;12.93;;;;;;;20.35;37.80;101242.59;10229889;28;20062;-62
2021/11/06 14:54:56;;;;;;;16.67;15.18;;;;;;;17.89;43.73;101247.47;10231011;28;20210;-61
2021/11/06 15:00:03;;;;;;;19.60;17.70;;;;;;;15.95;48.20;101241.81;10228213;28;20069;-61
2021/11/06 15:05:07;;;;;;;19.23;17.27;;;;;;;15.05;51.98;101234.31;10227845;28;20061;-61
2021/11/06 15:10:08;;;;;;;19.88;17.83;;;;;;;14.55;54.40;101235.66;10229434;28;20051;-61
2021/11/06 15:15:10;;;;;;;21.17;18.15;;;;;;;14.05;56.46;101229.88;10226389;28;20125;-58
2021/11/06 15:20:12;;;;;;;22.02;18.52;;;;;;;13.41;58.37;101229.47;10226406;28;20456;-59
2021/11/06 15:25:13;;;;;;;20.33;18.20;;;;;;;13.06;59.07;101229.44;10224739;28;20122;-59
2021/11/06 15:30:15;;;;;;;23.02;19.60;;;;;;;12.73;61.14;101220.34;10215138;28;20106;-58
2021/11/06 15:35:18;;;;;;;20.63;18.52;;;;;;;12.62;62.77;101226.44;10223791;28;20101;-58
2021/11/06 15:40:23;;;;;;;23.08;20.67;;;;;;;12.24;63.88;101227.44;10200028;28;20061;-59
2021/11/06 15:45:24;;;;;;;24.77;20.88;;;;;;;12.16;64.70;101216.44;10198447;28;20133;-58
2021/11/06 15:50:33;;;;;;;23.85;21.25;;;;;;;12.12;65.46;101212.31;10218360;28;20074;-60
2021/11/06 15:55:35;;;;;;;25.42;22.52;;;;;;;11.99;65.22;101207.84;10231833;28;20412;-59
2021/11/06 16:00:37;;;;;;;25.23;22.52;;;;;;;11.81;66.06;101203.78;10231518;28;21203;-57
2021/11/06 16:05:39;;;;;;;28.85;23.05;;;;;;;11.79;66.11;101211.03;10211226;28;20054;-58
2021/11/06 16:10:41;;;;;;;24.40;20.02;;;;;;;11.47;67.00;101195.47;10225907;28;20054;-58
2021/11/06 16:15:43;;;;;;;28.30;23.02;;;;;;;11.43;68.81;101205.47;10228629;28;20053;-59
2021/11/06 16:20:50;;;;;;;28.67;24.13;;;;;;;11.37;69.08;101197.06;10230077;28;20456;-57
2021/11/06 16:25:51;;;;;;;28.67;25.02;;;;;;;11.31;69.19;101188.53;10229203;28;20954;-60
2021/11/06 16:30:53;;;;;;;33.17;24.20;;;;;;;11.35;69.52;101198.97;10233447;28;20050;-58
2021/11/06 16:35:55;;;;;;;30.25;26.98;;;;;;;11.31;69.73;101190.34;10229288;28;20058;-59
2021/11/06 16:40:57;;;;;;;28.98;25.42;;;;;;;11.29;69.05;101198.44;10232317;28;20043;-57
2021/11/06 16:45:58;;;;;;;32.38;26.75;;;;;;;11.14;70.61;101195.00;10234215;28;20712;-58
2021/11/06 16:51:00;;;;;;;33.88;28.75;;;;;;;11.09;70.04;101196.28;10232803;28;20050;-59
2021/11/06 16:56:02;;;;;;;35.35;27.48;;;;;;;10.83;71.14;101204.22;10216559;28;20066;-58
2021/11/06 17:01:06;;;;;;;35.70;28.33;;;;;;;10.61;71.08;101205.63;10225727;28;20047;-58
2021/11/06 17:06:14;;;;;;;36.72;29.52;;;;;;;10.17;73.58;101204.00;10222913;28;20089;-58
2021/11/06 17:11:18;;;;;;;34.08;28.33;;;;;;;10.02;74.71;101204.97;10223262;28;20054;-59
2021/11/06 17:16:25;;;;;;;38.72;30.40;;;;;;;9.84;74.98;101202.50;10230669;28;20043;-59
2021/11/06 17:21:26;;;;;;;32.80;27.33;;;;;;;9.69;75.86;101199.00;10232822;28;20073;-58
2021/11/06 17:26:28;;;;;;;37.88;30.73;;;;;;;9.60;76.58;101202.22;10232092;28;20321;-59
2021/11/06 17:31:29;;;;;;;37.85;31.23;;;;;;;9.64;77.03;101205.56;10234143;28;20460;-59
2021/11/06 17:36:31;;;;;;;35.25;29.45;;;;;;;9.55;77.21;101196.34;10230725;28;20051;-59
2021/11/06 17:41:33;;;;;;;35.20;28.83;;;;;;;9.40;77.39;101192.81;10231750;28;20156;-58
2021/11/06 17:46:35;;;;;;;34.33;27.20;;;;;;;9.38;77.22;101202.66;10230405;28;20102;-59
2021/11/06 17:51:40;;;;;;;31.10;25.48;;;;;;;9.24;78.26;101203.50;10231651;28;20113;-59
2021/11/06 17:56:42;;;;;;;29.85;25.05;;;;;;;9.25;77.19;101193.72;10215091;28;20093;-59
2021/11/06 18:01:44;;;;;;;42.67;38.30;;;;;;;9.01;78.35;101196.91;10229710;28;20141;-56
2021/11/06 18:06:46;;;;;;;26.75;23.55;;;;;;;8.81;80.35;101201.59;10227898;28;20105;-56
2021/11/06 18:11:47;;;;;;;32.95;29.55;;;;;;;8.65;80.39;101190.16;10228563;28;20162;-56
2021/11/06 18:16:49;;;;;;;30.00;25.15;;;;;;;8.70;80.04;101195.19;10231006;28;20058;-56
2021/11/06 18:21:51;;;;;;;34.22;25.85;;;;;;;8.63;80.54;101178.75;10228827;28;20050;-56
2021/11/06 18:26:53;;;;;;;29.30;24.60;;;;;;;8.78;80.35;101169.91;10215864;28;20190;-55
2021/11/06 18:31:54;;;;;;;29.60;25.77;;;;;;;8.55;80.18;101178.34;10228628;28;21645;-56
2021/11/06 18:36:56;;;;;;;30.08;26.08;;;;;;;8.52;81.24;101167.91;10227653;28;20137;-55
2021/11/06 18:41:57;;;;;;;28.30;24.63;;;;;;;8.57;81.02;101176.44;10228136;28;20185;-56
2021/11/06 18:47:07;;;;;;;32.10;25.63;;;;;;;8.82;79.35;101154.66;10222483;28;20116;-57
2021/11/06 18:52:08;;;;;;;27.60;22.88;;;;;;;8.81;79.44;101145.84;10226399;28;20043;-57
2021/11/06 18:57:13;;;;;;;27.58;22.70;;;;;;;8.67;78.70;101145.78;10222956;28;20125;-57
2021/11/06 19:02:15;;;;;;;26.95;22.83;;;;;;;8.64;78.87;101130.03;10225699;28;20445;-57
2021/11/06 19:07:19;;;;;;;26.00;22.10;;;;;;;8.54;79.65;101112.94;10210632;28;20050;-56
2021/11/06 19:12:21;;;;;;;25.10;22.43;;;;;;;8.59;79.66;101102.91;10230068;28;20165;-54
2021/11/06 19:17:22;;;;;;;28.05;23.17;;;;;;;8.49;79.77;101103.44;10212797;28;20047;-55
2021/11/06 19:22:26;;;;;;;27.15;22.20;;;;;;;8.32;80.77;101107.03;10237619;28;20702;-56
2021/11/06 19:27:39;;;;;;;27.67;22.42;;;;;;;8.19;81.75;101076.00;10235981;28;20138;-56
2021/11/06 19:32:40;;;;;;;27.98;22.27;;;;;;;8.28;81.57;101072.81;10235291;28;20074;-56
2021/11/06 19:37:42;;;;;;;27.02;22.45;;;;;;;8.39;80.69;101078.38;10219737;28;20061;-59
2021/11/06 19:42:43;;;;;;;28.50;22.77;;;;;;;8.15;81.65;101070.00;10239096;28;20073;-59
2021/11/06 19:47:48;;;;;;;28.50;22.38;;;;;;;7.77;83.93;101065.94;10237040;28;21526;-59
2021/11/06 19:52:50;;;;;;;28.40;23.25;;;;;;;8.01;83.26;101073.44;10219480;28;20602;-59
2021/11/06 19:57:53;;;;;;;25.70;21.88;;;;;;;7.87;83.28;101086.66;10233606;28;20054;-59
2021/11/06 20:02:56;;;;;;;28.27;23.67;;;;;;;7.89;83.86;101082.09;10230522;28;20057;-60
2021/11/06 20:07:58;;;;;;;30.30;22.60;;;;;;;8.08;82.81;101096.03;10228056;28;20065;-58
2021/11/06 20:12:59;;;;;;;32.38;23.85;;;;;;;7.95;82.72;101105.63;10228773;28;20412;-58
2021/11/06 20:18:02;;;;;;;31.20;23.48;;;;;;;8.01;83.97;101109.72;10215939;28;20184;-58
2021/11/06 20:23:05;;;;;;;32.47;25.23;;;;;;;7.98;83.85;101116.03;10234512;28;20069;-61
2021/11/06 20:28:07;;;;;;;39.13;27.85;;;;;;;7.91;83.80;101112.03;10235789;28;20193;-60
2021/11/06 20:33:08;;;;;;;37.05;27.60;;;;;;;7.91;84.14;101117.31;10233489;28;20089;-60
2021/11/06 20:38:10;;;;;;;33.00;24.35;;;;;;;7.93;82.99;101113.66;10232804;28;20703;-60
2021/11/06 20:43:11;;;;;;;31.52;23.67;;;;;;;7.95;82.86;101105.63;10217539;28;20058;-60
2021/11/06 20:48:13;;;;;;;32.13;23.85;;;;;;;7.89;83.37;101090.06;10233939;28;20141;-60
2021/11/06 20:53:14;;;;;;;36.05;25.08;;;;;;;7.79;83.93;101095.88;10233753;28;20070;-59
2021/11/06 20:58:16;;;;;;;37.28;25.27;;;;;;;7.70;84.46;101083.13;10232465;28;20058;-58
2021/11/06 21:03:18;;;;;;;34.53;25.27;;;;;;;7.64;84.88;101070.22;10213357;28;20125;-60
2021/11/06 21:08:19;;;;;;;34.33;22.95;;;;;;;7.56;84.72;101056.53;10231571;28;20528;-59
2021/11/06 21:13:29;;;;;;;38.55;27.13;;;;;;;7.40;85.73;101044.13;10213826;28;20055;-61
2021/11/06 21:18:34;;;;;;;32.20;24.02;;;;;;;7.40;86.61;101033.53;10228512;28;20146;-58
2021/11/06 21:23:38;;;;;;;;;;;;;;;7.44;86.25;101035.06;10229136;28;20058;-60
2021/11/06 21:28:46;;;;;;;34.25;24.38;;;;;;;7.33;86.56;101040.09;10229211;28;19926;-61
2021/11/06 21:33:52;;;;;;;35.53;25.42;;;;;;;7.40;86.15;101051.22;10247371;28;20138;-60
2021/11/06 21:39:01;;;;;;;36.95;26.15;;;;;;;7.44;86.06;101042.16;10242821;28;20133;-60
2021/11/06 21:44:04;;;;;;;31.48;23.98;;;;;;;7.30;86.75;101034.13;10237394;28;20150;-60
2021/11/06 21:49:06;;;;;;;32.53;24.70;;;;;;;7.20;86.60;101042.53;10226253;28;20046;-60
2021/11/06 21:54:08;;;;;;;28.17;21.45;;;;;;;7.21;86.11;101041.63;10226898;28;20074;-60
2021/11/06 21:59:10;;;;;;;26.27;20.83;;;;;;;7.17;85.24;101023.34;10232811;28;20485;-60
2021/11/06 22:04:12;;;;;;;24.38;19.30;;;;;;;7.25;85.37;101005.22;10232846;28;20047;-60
2021/11/06 22:09:13;;;;;;;29.77;20.05;;;;;;;7.19;84.47;101001.13;10234687;28;20141;-59
2021/11/06 22:14:15;;;;;;;24.45;19.08;;;;;;;7.24;84.39;101003.53;10232656;28;20061;-60
2021/11/06 22:19:17;;;;;;;22.63;18.60;;;;;;;7.17;84.88;100992.41;10231548;28;20130;-60
2021/11/06 22:24:19;;;;;;;25.15;18.58;;;;;;;7.32;83.72;100990.72;10233405;28;20101;-62
2021/11/06 22:29:22;;;;;;;21.40;18.50;;;;;;;7.33;83.46;100965.09;10232665;28;20058;-60
2021/11/06 22:34:25;;;;;;;24.27;19.08;;;;;;;7.29;82.90;100961.75;10234053;28;21511;-59
2021/11/06 22:39:27;;;;;;;34.17;27.38;;;;;;;7.47;82.49;100972.28;10233564;28;20126;-60
2021/11/06 22:44:28;;;;;;;37.50;33.13;;;;;;;7.44;82.15;100952.94;10212823;28;20047;-60
2021/11/06 22:49:30;;;;;;;34.15;30.45;;;;;;;7.23;82.79;100964.75;10232636;28;20081;-59
2021/11/06 22:54:32;;;;;;;33.42;29.85;;;;;;;7.30;83.10;100950.22;10230380;28;20156;-59
2021/11/06 22:59:35;;;;;;;31.60;27.33;;;;;;;7.43;82.29;100940.66;10215755;28;20062;-59